Time;durP1;ratioP1;P1;durP2;ratioP2;P2;SDS_P1;SDS_P2;PMS_P1;PMS_P2;Temp;Humidity;BMP_temperature;BMP_pressure;BME280_temperature;BME280_humidity;BME280_pressure;Samples;Min_cycle;Max_cycle;Signal;HPM_P1;HPM_P2
2022/05/30 00:00:28;;;;;;;5.63;2.47;;;21.20;51.90;;;;;;5073595;28;20569;-78
2022/05/30 00:02:54;;;;;;;3.42;2.00;;;21.20;52.70;;;;;;5094511;28;20024;-78
2022/05/30 00:05:23;;;;;;;3.63;2.30;;;21.20;52.10;;;;;;5094168;28;20062;-81
2022/05/30 00:07:50;;;;;;;6.13;2.20;;;21.00;52.80;;;;;;5077554;28;20364;-83
2022/05/30 00:10:17;;;;;;;4.32;2.13;;;21.00;52.50;;;;;;5077390;28;20032;-82
2022/05/30 00:12:43;;;;;;;3.60;2.00;;;21.10;52.80;;;;;;5096367;28;20107;-79
2022/05/30 00:15:14;;;;;;;5.97;2.30;;;21.20;52.10;;;;;;5095376;28;20085;-79
2022/05/30 00:17:40;;;;;;;4.07;2.30;;;21.30;52.30;;;;;;5076225;28;20024;-79
2022/05/30 00:20:11;;;;;;;4.95;2.30;;;21.30;52.20;;;;;;5077723;28;20036;-83
2022/05/30 00:22:37;;;;;;;4.30;2.08;;;21.60;52.00;;;;;;5077839;28;20474;-83
2022/05/30 00:25:04;;;;;;;6.38;2.20;;;21.60;52.00;;;;;;5076500;28;20679;-84
2022/05/30 00:27:30;;;;;;;4.75;2.40;;;21.40;52.00;;;;;;5093710;28;20387;-85
2022/05/30 00:29:56;;;;;;;4.60;2.08;;;21.10;52.20;;;;;;5069246;28;20036;-89
2022/05/30 00:32:22;;;;;;;3.92;2.20;;;20.90;52.90;;;;;;5075189;28;20024;-88
2022/05/30 00:34:48;;;;;;;4.25;2.33;;;20.90;52.80;;;;;;5073658;28;20042;-86
2022/05/30 00:37:13;;;;;;;5.93;2.50;;;21.00;52.80;;;;;;5076814;28;20059;-84
2022/05/30 00:39:39;;;;;;;6.80;2.30;;;21.20;52.40;;;;;;5077510;28;20046;-81
2022/05/30 00:42:13;;;;;;;4.13;2.20;;;21.10;52.60;;;;;;5077665;28;20028;-81
2022/05/30 00:44:41;;;;;;;5.13;2.30;;;21.20;52.50;;;;;;5076836;28;20024;-79
2022/05/30 00:47:07;;;;;;;3.47;2.20;;;21.00;52.50;;;;;;5095086;28;20089;-82
2022/05/30 00:49:35;;;;;;;4.28;2.00;;;21.20;52.10;;;;;;5094539;28;20435;-92
2022/05/30 00:52:05;;;;;;;5.47;2.28;;;21.20;52.60;;;;;;5077455;28;20020;-82
2022/05/30 00:54:41;;;;;;;4.68;2.10;;;21.20;52.60;;;;;;5076591;28;20032;-79
2022/05/30 00:57:20;;;;;;;3.90;1.90;;;21.30;52.50;;;;;;5094363;28;20054;-80
2022/05/30 00:59:51;;;;;;;4.32;2.30;;;21.30;52.60;;;;;;5064791;28;20052;-81
2022/05/30 01:02:17;;;;;;;4.78;2.40;;;21.20;52.80;;;;;;5072494;28;20107;-86
2022/05/30 01:07:26;;;;;;;3.83;2.10;;;21.50;52.50;;;;;;5060814;28;20032;-81
2022/05/30 01:09:55;;;;;;;4.10;2.05;;;21.40;52.30;;;;;;5073044;28;20028;-83
2022/05/30 01:12:41;;;;;;;3.30;2.20;;;21.20;52.10;;;;;;5072287;28;20523;-92
2022/05/30 01:15:11;;;;;;;4.90;2.33;;;20.90;52.90;;;;;;5073914;28;20032;-89
2022/05/30 01:18:03;;;;;;;5.93;2.60;;;21.00;52.80;;;;;;5074110;28;20078;-83
2022/05/30 01:21:05;;;;;;;3.95;2.20;;;21.30;52.60;;;;;;5064945;28;20111;-87
2022/05/30 01:23:52;;;;;;;3.47;2.00;;;21.30;52.30;;;;;;5054929;28;20032;-91
2022/05/30 01:26:31;;;;;;;4.22;2.30;;;21.30;52.20;;;;;;5053644;28;20509;-82
2022/05/30 01:29:00;;;;;;;4.53;2.20;;;21.40;52.20;;;;;;5058982;28;20101;-81
2022/05/30 01:31:26;;;;;;;5.00;2.30;;;21.30;52.30;;;;;;5074331;28;20028;-79
2022/05/30 01:33:52;;;;;;;4.70;2.42;;;21.20;52.90;;;;;;5074745;28;20020;-85
2022/05/30 01:36:24;;;;;;;3.80;2.22;;;21.10;53.20;;;;;;5073219;28;20031;-85
2022/05/30 01:38:50;;;;;;;7.45;2.60;;;21.10;52.90;;;;;;5066089;28;20024;-87
2022/05/30 01:41:17;;;;;;;4.50;2.30;;;21.10;53.40;;;;;;5073169;28;20031;-81
2022/05/30 01:43:42;;;;;;;5.75;2.50;;;21.10;53.30;;;;;;5074344;28;20028;-88
2022/05/30 01:46:12;;;;;;;3.35;2.35;;;20.90;53.40;;;;;;5059005;28;20031;-85
2022/05/30 01:48:38;;;;;;;3.97;2.30;;;21.00;53.50;;;;;;5058747;28;20051;-80
2022/05/30 01:51:03;;;;;;;3.85;2.17;;;21.10;53.30;;;;;;5064380;28;20127;-79
2022/05/30 01:53:29;;;;;;;3.88;2.55;;;21.00;53.20;;;;;;5057983;28;20024;-79
2022/05/30 01:55:55;;;;;;;5.20;2.45;;;20.80;53.50;;;;;;5071149;28;20119;-84
2022/05/30 01:58:21;;;;;;;4.03;2.30;;;20.90;53.40;;;;;;5072144;28;20387;-82
2022/05/30 02:00:48;;;;;;;10.35;2.80;;;20.90;53.30;;;;;;5074891;28;20039;-84
2022/05/30 02:03:18;;;;;;;4.93;2.40;;;20.90;53.40;;;;;;5075574;28;20028;-81
2022/05/30 02:05:43;;;;;;;4.32;2.90;;;20.80;53.40;;;;;;5072217;28;20475;-77
2022/05/30 02:08:10;;;;;;;5.30;2.70;;;20.80;53.10;;;;;;5093099;28;20043;-79
2022/05/30 02:10:36;;;;;;;5.15;2.47;;;20.50;53.80;;;;;;5078208;28;20031;-78
2022/05/30 02:13:05;;;;;;;3.70;2.17;;;20.20;54.40;;;;;;5073958;28;20024;-88
2022/05/30 02:17:00;;;;;;;4.60;2.40;;;20.50;53.90;;;;;;5075835;28;20115;-79
2022/05/30 02:18:16;;;;;;;4.65;2.40;;;20.80;53.60;;;;;;5093050;28;20025;-81
2022/05/30 02:20:45;;;;;;;4.38;2.50;;;21.00;53.20;;;;;;5093173;28;20039;-87
2022/05/30 02:23:11;;;;;;;4.32;2.80;;;21.10;53.10;;;;;;5073137;28;20028;-91
2022/05/30 02:25:36;;;;;;;4.18;2.60;;;20.80;53.20;;;;;;5055427;28;20033;-76
2022/05/30 02:28:02;;;;;;;5.53;2.50;;;20.20;54.50;;;;;;5070396;28;20097;-78
2022/05/30 02:30:28;;;;;;;5.20;2.70;;;20.40;54.40;;;;;;5061647;28;20056;-78
2022/05/30 02:36:38;;;;;;;5.40;2.90;;;20.10;54.70;;;;;;5059853;28;20486;-77
2022/05/30 02:38:23;;;;;;;5.50;2.88;;;20.60;54.20;;;;;;5091346;28;20022;-80
2022/05/30 02:40:48;;;;;;;4.65;2.72;;;20.60;53.90;;;;;;5091681;28;20044;-77
2022/05/30 02:43:14;;;;;;;4.90;2.78;;;20.40;54.50;;;;;;5073476;28;20024;-85
2022/05/30 02:45:41;;;;;;;4.72;2.97;;;20.30;54.80;;;;;;5075150;28;20062;-77
2022/05/30 02:48:08;;;;;;;6.47;3.25;;;20.20;55.20;;;;;;5092717;28;20021;-78
2022/05/30 02:50:33;;;;;;;5.95;3.13;;;20.00;55.50;;;;;;5071708;28;20086;-78
2022/05/30 02:52:59;;;;;;;6.13;2.92;;;20.00;55.60;;;;;;5092781;28;20482;-76
2022/05/30 02:55:25;;;;;;;8.05;3.20;;;19.90;55.70;;;;;;5092890;28;20093;-85
2022/05/30 02:57:51;;;;;;;9.13;3.45;;;19.70;55.90;;;;;;5074210;28;20115;-83
2022/05/30 03:00:26;;;;;;;5.35;3.03;;;19.90;55.90;;;;;;5057464;28;20077;-86
2022/05/30 03:02:52;;;;;;;4.70;3.25;;;20.20;55.50;;;;;;5060874;28;20032;-80
2022/05/30 03:05:18;;;;;;;4.95;3.30;;;20.20;55.70;;;;;;5075011;28;20028;-85
2022/05/30 03:07:44;;;;;;;4.95;3.45;;;20.50;55.10;;;;;;5074629;28;20059;-77
2022/05/30 03:10:10;;;;;;;6.13;3.00;;;20.50;54.80;;;;;;5092614;28;20032;-77
2022/05/30 03:12:35;;;;;;;4.20;3.00;;;20.30;55.10;;;;;;5075063;28;20421;-80
2022/05/30 03:15:01;;;;;;;5.30;3.42;;;20.40;55.30;;;;;;5073673;28;20054;-84
2022/05/30 03:17:27;;;;;;;9.50;3.22;;;20.50;54.80;;;;;;5075051;28;20024;-81
2022/05/30 03:19:52;;;;;;;4.93;3.20;;;20.60;54.40;;;;;;5081376;28;20033;-79
2022/05/30 03:22:20;;;;;;;5.82;3.53;;;20.70;54.40;;;;;;5058741;28;20028;-85
2022/05/30 03:24:46;;;;;;;5.35;3.38;;;21.00;53.90;;;;;;5091036;28;20115;-85
2022/05/30 03:27:11;;;;;;;6.82;2.90;;;21.00;53.80;;;;;;5078809;28;20038;-82
2022/05/30 03:29:37;;;;;;;5.38;3.20;;;21.00;53.50;;;;;;5088401;28;20103;-78
2022/05/30 03:32:03;;;;;;;5.07;3.05;;;20.60;54.20;;;;;;5093618;28;20054;-77
2022/05/30 03:34:28;;;;;;;5.57;3.20;;;20.70;54.10;;;;;;5079034;28;20503;-81
2022/05/30 03:36:54;;;;;;;4.93;3.05;;;20.60;54.50;;;;;;5097001;28;20036;-86
2022/05/30 03:39:20;;;;;;;5.43;3.35;;;20.70;54.60;;;;;;5096899;28;20443;-84
2022/05/30 03:41:46;;;;;;;5.35;3.10;;;20.80;54.30;;;;;;5096235;28;20036;-86
2022/05/30 03:44:12;;;;;;;4.95;3.00;;;20.90;54.20;;;;;;5076677;28;20028;-81
2022/05/30 03:46:37;;;;;;;4.82;3.10;;;20.70;54.30;;;;;;5078346;28;20028;-80
2022/05/30 03:49:03;;;;;;;5.20;3.67;;;20.60;54.40;;;;;;5078323;28;20020;-81
2022/05/30 03:51:29;;;;;;;5.35;3.30;;;20.70;54.40;;;;;;5077227;28;20061;-77
2022/05/30 03:53:55;;;;;;;8.90;3.35;;;20.80;54.30;;;;;;5096461;28;20024;-79
2022/05/30 03:56:21;;;;;;;5.57;3.50;;;21.00;54.10;;;;;;5076569;28;20386;-83
2022/05/30 03:58:47;;;;;;;5.50;3.10;;;21.10;54.00;;;;;;5082181;28;20024;-79
2022/05/30 04:01:13;;;;;;;5.28;3.35;;;21.20;53.90;;;;;;5078095;28;20059;-87
2022/05/30 04:03:39;;;;;;;5.15;3.63;;;20.90;54.00;;;;;;5095652;28;20051;-80
2022/05/30 04:06:05;;;;;;;5.32;3.30;;;20.80;54.40;;;;;;5076466;28;20545;-75
2022/05/30 04:08:32;;;;;;;4.03;3.00;;;20.80;54.40;;;;;;5095937;28;20024;-78
2022/05/30 04:10:57;;;;;;;5.97;3.00;;;20.80;54.60;;;;;;5096406;28;20024;-78
2022/05/30 04:13:23;;;;;;;5.00;3.50;;;21.00;54.50;;;;;;5095874;28;20360;-78
2022/05/30 04:15:49;;;;;;;4.57;3.50;;;21.10;54.00;;;;;;5063365;28;20036;-79
2022/05/30 04:18:15;;;;;;;6.03;3.42;;;21.10;54.00;;;;;;5076940;28;20434;-77
2022/05/30 04:20:41;;;;;;;5.97;3.80;;;21.20;53.80;;;;;;5077225;28;20040;-78
2022/05/30 04:23:07;;;;;;;4.97;3.38;;;20.90;54.30;;;;;;5077503;28;20046;-78
2022/05/30 04:25:33;;;;;;;5.10;3.35;;;21.00;54.30;;;;;;5095173;28;20036;-81
2022/05/30 04:27:59;;;;;;;5.25;3.50;;;20.90;54.40;;;;;;5076565;28;20039;-90
2022/05/30 04:30:25;;;;;;;5.50;3.72;;;20.90;54.70;;;;;;5075924;28;20101;-78
2022/05/30 04:32:51;;;;;;;6.13;3.80;;;21.10;54.60;;;;;;5089586;28;20387;-86
2022/05/30 04:35:18;;;;;;;6.25;3.75;;;21.20;54.60;;;;;;5067718;28;20035;-85
2022/05/30 04:37:45;;;;;;;5.50;3.63;;;21.00;55.00;;;;;;5074311;28;20518;-80
2022/05/30 04:40:13;;;;;;;5.18;3.40;;;21.20;54.90;;;;;;5078425;28;20060;-86
2022/05/30 04:42:39;;;;;;;7.88;3.90;;;21.00;55.00;;;;;;5075945;28;20119;-82
2022/05/30 04:45:06;;;;;;;6.07;3.83;;;21.00;54.80;;;;;;5059916;28;20032;-80
2022/05/30 04:47:36;;;;;;;7.63;3.72;;;20.90;54.90;;;;;;5080671;28;20056;-79
2022/05/30 04:50:03;;;;;;;6.65;3.72;;;20.90;54.80;;;;;;5086015;28;20028;-79
2022/05/30 04:52:30;;;;;;;6.10;4.10;;;20.80;55.10;;;;;;5057217;28;20070;-85
2022/05/30 04:54:56;;;;;;;5.13;3.78;;;20.90;54.70;;;;;;5066307;28;20024;-78
2022/05/30 04:57:21;;;;;;;7.38;3.83;;;21.20;54.30;;;;;;5076857;28;20149;-88
2022/05/30 04:59:47;;;;;;;4.80;3.70;;;21.50;53.90;;;;;;5095341;28;20090;-82
2022/05/30 05:02:15;;;;;;;6.65;3.80;;;21.60;53.80;;;;;;5094031;28;20055;-81
2022/05/30 05:04:41;;;;;;;5.60;3.60;;;21.70;53.90;;;;;;5093170;28;20028;-84
2022/05/30 05:07:08;;;;;;;5.43;4.03;;;21.90;53.90;;;;;;5076641;28;20024;-77
2022/05/30 05:09:46;;;;;;;5.72;3.70;;;21.60;53.60;;;;;;5061562;28;20140;-88
2022/05/30 05:12:11;;;;;;;9.27;4.05;;;21.70;54.20;;;;;;5064831;28;20028;-78
2022/05/30 05:14:37;;;;;;;5.93;3.88;;;21.70;53.80;;;;;;5062005;28;20050;-89
2022/05/30 05:17:05;;;;;;;5.13;3.70;;;21.60;54.00;;;;;;5072041;28;20032;-84
2022/05/30 05:19:32;;;;;;;6.05;3.67;;;21.70;54.10;;;;;;5073705;28;20028;-89
2022/05/30 05:21:59;;;;;;;8.70;4.13;;;22.00;53.60;;;;;;5081169;28;20024;-87
2022/05/30 05:24:25;;;;;;;5.57;3.67;;;22.10;53.60;;;;;;5071246;28;20060;-86
2022/05/30 05:26:50;;;;;;;9.20;4.00;;;22.00;53.50;;;;;;5080993;28;20050;-82
2022/05/30 05:29:17;;;;;;;6.63;3.45;;;22.30;53.40;;;;;;5058560;28;20021;-77
2022/05/30 05:31:43;;;;;;;5.43;3.20;;;22.50;53.20;;;;;;5065261;28;20077;-81
2022/05/30 05:34:11;;;;;;;6.90;3.40;;;22.40;53.20;;;;;;5075484;28;20081;-78
2022/05/30 05:36:40;;;;;;;4.75;3.33;;;22.20;53.20;;;;;;5092884;28;20035;-89
2022/05/30 05:39:07;;;;;;;5.50;3.63;;;22.00;54.10;;;;;;5091939;28;20020;-77
2022/05/30 05:41:33;;;;;;;7.22;3.80;;;22.20;53.40;;;;;;5093138;28;20020;-84
2022/05/30 05:43:59;;;;;;;11.85;6.05;;;22.30;53.30;;;;;;5061280;28;20017;-80
2022/05/30 05:46:28;;;;;;;5.90;3.80;;;22.50;52.50;;;;;;5074296;28;20066;-81
2022/05/30 05:48:54;;;;;;;5.65;3.25;;;22.40;52.40;;;;;;5074833;28;20071;-80
2022/05/30 05:51:22;;;;;;;6.57;3.50;;;22.00;53.60;;;;;;5076239;28;20127;-83
2022/05/30 05:53:48;;;;;;;6.03;3.60;;;22.10;53.30;;;;;;5075049;28;20133;-82
2022/05/30 05:56:29;;;;;;;4.65;3.13;;;22.50;52.60;;;;;;5062281;28;20516;-86
2022/05/30 05:58:56;;;;;;;5.18;3.20;;;22.80;52.20;;;;;;5077230;28;20081;-86
2022/05/30 06:01:31;;;;;;;4.43;3.30;;;23.20;51.70;;;;;;5064561;28;20044;-79
2022/05/30 06:04:00;;;;;;;5.55;3.47;;;23.30;51.60;;;;;;5064406;28;20020;-80
2022/05/30 06:06:26;;;;;;;4.50;3.10;;;23.40;50.80;;;;;;5079768;28;20013;-82
2022/05/30 06:08:54;;;;;;;6.38;3.20;;;23.30;50.70;;;;;;5072951;28;20082;-79
2022/05/30 06:11:21;;;;;;;4.15;2.88;;;23.30;50.80;;;;;;5058065;28;20021;-80
2022/05/30 06:13:48;;;;;;;4.63;2.90;;;23.60;51.00;;;;;;5072998;28;20078;-76
2022/05/30 06:16:24;;;;;;;5.13;3.05;;;23.80;50.00;;;;;;5080504;28;20032;-84
2022/05/30 06:18:51;;;;;;;6.10;3.20;;;23.90;50.10;;;;;;5071123;28;20340;-84
2022/05/30 06:21:19;;;;;;;7.00;3.20;;;23.90;49.80;;;;;;5058715;28;20028;-81
2022/05/30 06:23:47;;;;;;;5.88;2.72;;;23.80;50.10;;;;;;5093509;28;20056;-81
2022/05/30 06:26:14;;;;;;;5.18;3.08;;;24.00;50.10;;;;;;5074962;28;20062;-89
2022/05/30 06:28:41;;;;;;;4.55;2.92;;;24.20;50.00;;;;;;5060706;28;20704;-80
2022/05/30 06:31:08;;;;;;;5.65;2.80;;;24.00;49.90;;;;;;5074049;28;20039;-80
2022/05/30 06:33:34;;;;;;;4.40;2.78;;;23.70;49.40;;;;;;5074904;28;20165;-81
2022/05/30 06:36:02;;;;;;;6.68;2.72;;;23.10;50.80;;;;;;5075362;28;20127;-86
2022/05/30 06:38:28;;;;;;;5.05;2.70;;;23.30;50.90;;;;;;5093224;28;20020;-80
2022/05/30 06:40:54;;;;;;;7.20;2.97;;;23.60;50.70;;;;;;5093561;28;20047;-83
2022/05/30 06:43:19;;;;;;;6.65;3.00;;;23.70;50.10;;;;;;5074983;28;20030;-82
2022/05/30 06:45:48;;;;;;;4.57;2.65;;;23.80;50.80;;;;;;5075572;28;20090;-85
2022/05/30 06:48:15;;;;;;;5.80;2.58;;;24.20;49.80;;;;;;5093152;28;20100;-85
2022/05/30 06:50:40;;;;;;;5.35;2.70;;;24.40;49.60;;;;;;5093318;28;20028;-83
2022/05/30 06:53:06;;;;;;;4.50;2.70;;;24.40;49.00;;;;;;5092806;28;20130;-77
2022/05/30 06:55:32;;;;;;;5.22;2.70;;;24.30;48.80;;;;;;5093029;28;20028;-80
2022/05/30 06:58:13;;;;;;;4.30;2.63;;;24.20;49.60;;;;;;5093421;28;20024;-86
2022/05/30 07:00:38;;;;;;;4.25;2.30;;;24.20;49.50;;;;;;5071303;28;20060;-77
2022/05/30 07:03:04;;;;;;;5.15;3.42;;;24.10;49.40;;;;;;5073353;28;20025;-89
2022/05/30 07:05:30;;;;;;;4.72;2.65;;;24.20;49.70;;;;;;5072874;28;20021;-78
2022/05/30 07:07:56;;;;;;;5.35;2.80;;;24.20;49.90;;;;;;5072381;28;20047;-81
2022/05/30 07:10:23;;;;;;;4.43;2.50;;;24.30;50.20;;;;;;5071488;28;20040;-82
2022/05/30 07:12:49;;;;;;;5.53;3.00;;;24.50;50.00;;;;;;5071752;28;20062;-81
2022/05/30 07:15:15;;;;;;;4.85;2.40;;;24.40;50.10;;;;;;5072534;28;20104;-79
2022/05/30 07:17:41;;;;;;;4.97;2.58;;;24.20;49.50;;;;;;5071293;28;20391;-80
2022/05/30 07:20:07;;;;;;;5.15;2.60;;;24.20;50.20;;;;;;5072120;28;20474;-89
2022/05/30 07:22:33;;;;;;;5.30;2.80;;;24.40;51.00;;;;;;5071631;28;20025;-80
2022/05/30 07:24:59;;;;;;;5.28;2.63;;;24.50;49.10;;;;;;5072494;28;20028;-77
2022/05/30 07:27:24;;;;;;;4.57;2.70;;;24.30;50.30;;;;;;5072590;28;20074;-79
2022/05/30 07:29:50;;;;;;;5.15;3.10;;;24.40;50.30;;;;;;5072437;28;20086;-80
2022/05/30 07:32:17;;;;;;;5.38;2.78;;;24.70;49.90;;;;;;5072879;28;20032;-90
2022/05/30 07:34:43;;;;;;;4.65;2.72;;;24.50;48.20;;;;;;5071774;28;20024;-84
2022/05/30 07:37:09;;;;;;;5.65;3.80;;;24.10;48.60;;;;;;5072590;28;20063;-84
2022/05/30 07:39:38;;;;;;;3.95;2.63;;;23.90;49.50;;;;;;5073080;28;20048;-79
2022/05/30 07:42:05;;;;;;;7.90;3.27;;;23.80;49.60;;;;;;5072838;28;20047;-88
2022/05/30 07:44:31;;;;;;;4.53;2.65;;;23.70;49.20;;;;;;5072620;28;20300;-83
2022/05/30 07:46:57;;;;;;;5.05;2.90;;;23.70;48.90;;;;;;5071313;28;20036;-90
2022/05/30 07:49:23;;;;;;;12.88;7.05;;;23.70;48.80;;;;;;5071467;28;20025;-85
2022/05/30 07:51:49;;;;;;;9.70;5.32;;;23.50;49.20;;;;;;5071089;28;20383;-85
2022/05/30 07:54:15;;;;;;;8.93;4.20;;;23.40;50.20;;;;;;5072553;28;20086;-82
2022/05/30 07:56:41;;;;;;;4.88;3.20;;;23.30;50.50;;;;;;5071102;28;20028;-81
2022/05/30 07:59:07;;;;;;;4.35;3.10;;;23.50;50.60;;;;;;5071427;28;20028;-85
2022/05/30 08:01:33;;;;;;;6.18;2.80;;;23.50;50.30;;;;;;5071209;28;20041;-79
2022/05/30 08:03:59;;;;;;;6.32;3.10;;;23.50;50.40;;;;;;5071398;28;20016;-88
2022/05/30 08:06:28;;;;;;;5.50;2.90;;;23.60;50.30;;;;;;5072138;28;20120;-79
2022/05/30 08:08:57;;;;;;;9.02;2.95;;;23.80;50.40;;;;;;5075890;28;20483;-87
2022/05/30 08:11:24;;;;;;;4.95;3.05;;;23.70;49.90;;;;;;5068488;28;20025;-81
2022/05/30 08:13:50;;;;;;;7.18;3.70;;;23.40;50.40;;;;;;5075795;28;20021;-84
2022/05/30 08:16:26;;;;;;;5.85;2.90;;;23.40;50.20;;;;;;5075963;28;20024;-81
2022/05/30 08:18:52;;;;;;;4.90;2.50;;;23.50;50.80;;;;;;5076066;28;20089;-82
2022/05/30 08:21:18;;;;;;;5.03;2.83;;;23.70;50.00;;;;;;5075790;28;20391;-79
2022/05/30 08:23:44;;;;;;;4.95;2.75;;;23.90;50.00;;;;;;5075226;28;20067;-86
2022/05/30 08:26:13;;;;;;;4.60;2.80;;;24.20;49.50;;;;;;5074543;28;20055;-78
2022/05/30 08:28:40;;;;;;;8.68;3.20;;;24.20;49.60;;;;;;5075775;28;20020;-80
2022/05/30 08:31:06;;;;;;;4.07;2.53;;;24.40;49.50;;;;;;5074028;28;20478;-84
2022/05/30 08:33:31;;;;;;;4.80;2.30;;;24.90;49.70;;;;;;5075399;28;20031;-81
2022/05/30 08:36:09;;;;;;;7.38;2.88;;;24.90;49.30;;;;;;5075460;28;20107;-82
2022/05/30 08:38:37;;;;;;;4.15;2.35;;;24.80;48.40;;;;;;5075276;28;20029;-78
2022/05/30 08:43:51;;;;;;;4.80;2.35;;;24.80;48.20;;;;;;5075695;28;20090;-83
2022/05/30 08:46:23;;;;;;;5.13;2.13;;;23.90;49.30;;;;;;5074052;28;20055;-80
2022/05/30 08:49:14;;;;;;;4.53;2.50;;;23.70;49.60;;;;;;5074166;28;20392;-81
2022/05/30 08:51:58;;;;;;;4.93;2.63;;;23.40;49.00;;;;;;5075414;28;20540;-79
2022/05/30 08:54:48;;;;;;;4.13;2.35;;;23.70;49.60;;;;;;5075156;28;20060;-80
2022/05/30 08:57:26;;;;;;;5.53;2.28;;;23.70;50.10;;;;;;5075082;28;20024;-83
2022/05/30 09:00:04;;;;;;;5.30;2.42;;;23.90;48.30;;;;;;5073721;28;20060;-86
2022/05/30 09:02:49;;;;;;;5.38;2.13;;;24.60;47.50;;;;;;5073723;28;20033;-91
2022/05/30 09:05:31;;;;;;;3.95;2.00;;;25.40;46.30;;;;;;5074978;28;20086;-83
2022/05/30 09:08:04;;;;;;;4.35;2.03;;;25.80;47.40;;;;;;5075181;28;20031;-80
2022/05/30 09:10:37;;;;;;;4.97;1.80;;;25.10;48.20;;;;;;5073412;28;20027;-79
2022/05/30 09:13:18;;;;;;;3.75;1.50;;;25.30;46.30;;;;;;5074767;28;20024;-79
2022/05/30 09:16:25;;;;;;;4.05;1.70;;;25.10;44.90;;;;;;5074611;28;20231;-83
2022/05/30 09:18:55;;;;;;;4.15;1.83;;;25.50;45.30;;;;;;5073606;28;20033;-81
2022/05/30 09:21:22;;;;;;;6.35;1.80;;;25.70;44.40;;;;;;5074475;28;20052;-81
2022/05/30 09:23:47;;;;;;;3.65;1.98;;;25.80;44.90;;;;;;5074628;28;20024;-78
2022/05/30 09:26:17;;;;;;;4.53;1.70;;;25.80;45.60;;;;;;5074947;28;20035;-82
2022/05/30 09:28:45;;;;;;;5.60;2.00;;;25.40;44.60;;;;;;5074462;28;20509;-81
2022/05/30 09:31:29;;;;;;;4.65;1.80;;;25.00;45.70;;;;;;5074344;28;20029;-86
2022/05/30 09:33:58;;;;;;;3.63;1.95;;;25.30;47.00;;;;;;5074147;28;20040;-78
2022/05/30 09:36:33;;;;;;;5.63;2.10;;;25.70;46.50;;;;;;5074134;28;20445;-83
2022/05/30 09:39:14;;;;;;;4.35;2.00;;;25.70;46.20;;;;;;5074295;28;20047;-90
2022/05/30 09:41:40;;;;;;;3.80;1.70;;;25.70;46.50;;;;;;5074313;28;20066;-88
2022/05/30 09:44:18;;;;;;;4.53;1.90;;;25.70;44.90;;;;;;5073802;28;20032;-84
2022/05/30 09:47:01;;;;;;;6.10;1.83;;;25.60;44.50;;;;;;5072643;28;20024;-78
2022/05/30 09:49:43;;;;;;;3.60;1.60;;;25.20;45.50;;;;;;5072559;28;20475;-78
2022/05/30 09:52:36;;;;;;;3.53;1.70;;;25.20;45.30;;;;;;5073308;28;20056;-77
2022/05/30 09:55:25;;;;;;;4.78;1.75;;;25.30;45.30;;;;;;5073909;28;20031;-79
2022/05/30 09:57:53;;;;;;;3.78;1.90;;;25.60;45.00;;;;;;5073543;28;20036;-79
2022/05/30 10:00:32;;;;;;;3.30;1.80;;;25.60;44.80;;;;;;5081042;28;20059;-77
2022/05/30 10:03:07;;;;;;;5.07;2.20;;;26.00;46.00;;;;;;5093970;28;20065;-88
2022/05/30 10:05:34;;;;;;;4.05;1.90;;;25.90;44.90;;;;;;5075608;28;20043;-84
2022/05/30 10:08:06;;;;;;;4.70;1.85;;;25.70;45.40;;;;;;5076744;28;20029;-80
2022/05/30 10:10:36;;;;;;;4.03;1.90;;;26.00;46.20;;;;;;5093961;28;20077;-85
2022/05/30 10:13:08;;;;;;;6.15;2.00;;;26.00;45.00;;;;;;5076111;28;20031;-86
2022/05/30 10:15:54;;;;;;;5.10;2.08;;;25.80;46.00;;;;;;5076027;28;20115;-83
2022/05/30 10:18:26;;;;;;;4.43;1.90;;;25.70;45.20;;;;;;5093633;28;20020;-84
2022/05/30 10:21:00;;;;;;;4.68;1.77;;;25.90;46.50;;;;;;5093485;28;20043;-84
2022/05/30 10:29:28;;;;;;;5.95;2.40;;;25.50;44.30;;;;;;5094257;28;20087;-86
2022/05/30 10:32:16;;;;;;;4.05;2.25;;;25.50;45.20;;;;;;5093526;28;20032;-78
2022/05/30 10:35:02;;;;;;;4.30;2.00;;;25.70;45.60;;;;;;5075543;28;20036;-78
2022/05/30 10:37:46;;;;;;;5.78;2.28;;;25.70;45.70;;;;;;5075493;28;20224;-83
2022/05/30 10:40:39;;;;;;;6.32;2.70;;;25.80;45.90;;;;;;5075460;28;20058;-79
2022/05/30 10:43:24;;;;;;;4.05;2.17;;;26.10;46.30;;;;;;5075258;28;20043;-82
2022/05/30 10:46:12;;;;;;;4.13;2.45;;;26.30;45.30;;;;;;5093423;28;20047;-80
2022/05/30 10:49:14;;;;;;;7.20;2.50;;;26.20;45.20;;;;;;5093354;28;20103;-87
2022/05/30 10:51:54;;;;;;;4.35;2.20;;;26.10;44.70;;;;;;4975537;28;20030;-77
2022/05/30 10:54:34;;;;;;;6.18;2.15;;;26.30;45.60;;;;;;4991723;28;20031;-84
2022/05/30 10:57:32;;;;;;;5.20;2.10;;;26.00;45.20;;;;;;4991855;28;20440;-79
2022/05/30 11:00:10;;;;;;;5.30;2.45;;;25.70;45.30;;;;;;4991707;28;20451;-87
2022/05/30 11:02:36;;;;;;;5.07;2.13;;;26.10;45.60;;;;;;4992108;28;20092;-84
2022/05/30 11:05:21;;;;;;;4.32;1.88;;;26.10;44.50;;;;;;4975932;28;20038;-78
2022/05/30 11:08:05;;;;;;;5.45;2.30;;;25.90;44.00;;;;;;4991765;28;20018;-89
2022/05/30 11:10:35;;;;;;;4.85;1.90;;;25.60;45.00;;;;;;4975487;28;20056;-80
2022/05/30 11:13:14;;;;;;;5.20;1.97;;;25.80;45.30;;;;;;4975523;28;20579;-78
2022/05/30 11:16:08;;;;;;;4.53;2.38;;;26.10;46.40;;;;;;4992009;28;20042;-84
2022/05/30 11:18:39;;;;;;;4.20;1.88;;;26.00;45.20;;;;;;4991514;28;20038;-85
2022/05/30 11:21:28;;;;;;;3.80;2.00;;;25.90;45.70;;;;;;4975102;28;20489;-80
2022/05/30 11:23:53;;;;;;;5.20;2.10;;;25.90;46.60;;;;;;4991780;28;20033;-78
2022/05/30 11:26:31;;;;;;;3.17;1.65;;;25.40;45.10;;;;;;5070724;28;20032;-78
2022/05/30 11:29:15;;;;;;;5.43;1.80;;;25.30;45.70;;;;;;5092818;28;20085;-86
2022/05/30 11:31:49;;;;;;;4.38;1.90;;;25.10;45.10;;;;;;5092845;28;20039;-77
2022/05/30 11:34:37;;;;;;;4.03;1.90;;;24.90;45.90;;;;;;5074782;28;20049;-78
2022/05/30 11:37:33;;;;;;;4.07;2.10;;;24.80;45.90;;;;;;5092640;28;20050;-80
2022/05/30 11:40:32;;;;;;;4.68;1.80;;;24.90;45.30;;;;;;5092959;28;20086;-77
2022/05/30 11:43:10;;;;;;;3.40;1.55;;;24.90;44.80;;;;;;5095174;28;20066;-77
2022/05/30 11:45:44;;;;;;;3.53;1.55;;;24.90;44.50;;;;;;5096447;28;20103;-75
2022/05/30 11:48:37;;;;;;;6.47;2.00;;;25.10;44.50;;;;;;5078305;28;20059;-75
2022/05/30 11:51:19;;;;;;;4.00;1.90;;;25.10;44.40;;;;;;5096618;28;20024;-83
2022/05/30 11:54:11;;;;;;;4.65;1.95;;;25.20;44.50;;;;;;5078296;28;20030;-82
2022/05/30 11:56:48;;;;;;;3.47;1.85;;;25.20;44.50;;;;;;5096365;28;20020;-82
2022/05/30 11:59:56;;;;;;;5.13;1.90;;;25.60;44.70;;;;;;5096118;28;20024;-77
2022/05/30 12:02:53;;;;;;;3.42;1.90;;;25.70;44.40;;;;;;5078054;28;20046;-78
2022/05/30 12:05:56;;;;;;;4.82;2.03;;;25.50;44.60;;;;;;5096366;28;20107;-78
2022/05/30 12:08:36;;;;;;;3.97;1.90;;;25.70;45.20;;;;;;5096563;28;20020;-84
2022/05/30 12:11:21;;;;;;;4.80;1.83;;;25.50;44.40;;;;;;5096298;28;20024;-77
2022/05/30 12:13:58;;;;;;;4.30;1.90;;;25.50;45.10;;;;;;5096408;28;20024;-91
2022/05/30 12:16:49;;;;;;;4.10;2.22;;;25.90;44.90;;;;;;5078175;28;20032;-85
2022/05/30 12:24:56;;;;;;;5.78;1.98;;;26.00;44.00;;;;;;5095948;28;20027;-77
2022/05/30 12:27:30;;;;;;;6.45;2.00;;;26.20;45.00;;;;;;5096061;28;20121;-80
2022/05/30 12:29:58;;;;;;;3.17;1.85;;;26.10;44.50;;;;;;5077777;28;20378;-88
2022/05/30 12:32:24;;;;;;;5.53;2.20;;;26.20;44.00;;;;;;5095748;28;20106;-80
2022/05/30 12:35:06;;;;;;;3.53;1.92;;;26.40;43.80;;;;;;5077744;28;20024;-87
2022/05/30 12:37:46;;;;;;;4.15;1.80;;;26.60;44.40;;;;;;5095651;28;20545;-78
2022/05/30 12:40:27;;;;;;;4.70;1.95;;;26.50;43.70;;;;;;5077428;28;20383;-78
2022/05/30 12:43:07;;;;;;;6.00;2.20;;;26.40;44.80;;;;;;5095703;28;20151;-85
2022/05/30 12:46:04;;;;;;;4.45;1.75;;;26.50;45.00;;;;;;5077328;28;20016;-89
2022/05/30 12:48:56;;;;;;;4.65;1.70;;;26.70;44.90;;;;;;5095358;28;20024;-78
2022/05/30 12:51:39;;;;;;;4.25;1.80;;;26.60;44.10;;;;;;5077334;28;20030;-77
2022/05/30 12:54:08;;;;;;;3.88;1.98;;;26.10;44.50;;;;;;5094829;28;20028;-78
2022/05/30 12:56:48;;;;;;;4.45;1.80;;;26.10;45.00;;;;;;5095327;28;20081;-78
2022/05/30 12:59:33;;;;;;;6.32;2.20;;;26.50;44.40;;;;;;5094866;28;20511;-79
2022/05/30 13:02:00;;;;;;;5.07;2.15;;;26.70;44.40;;;;;;5077467;28;20067;-83
2022/05/30 13:04:29;;;;;;;3.90;1.80;;;27.00;43.90;;;;;;5095323;28;20024;-79
2022/05/30 13:06:58;;;;;;;5.93;2.10;;;27.30;44.50;;;;;;5095180;28;20375;-78
2022/05/30 13:09:25;;;;;;;3.95;1.90;;;27.50;43.50;;;;;;5095115;28;20108;-81
2022/05/30 13:12:08;;;;;;;5.85;2.20;;;27.40;43.40;;;;;;5094729;28;20032;-76
2022/05/30 13:14:39;;;;;;;8.45;1.95;;;26.80;44.10;;;;;;5076500;28;20111;-80
2022/05/30 13:17:20;;;;;;;;;;;26.60;45.60;;;;;;5095117;28;20477;-77
2022/05/30 13:19:50;;;;;;;;;;;26.80;43.30;;;;;;5095360;28;19973;-77
2022/05/30 13:22:32;;;;;;;5.40;1.77;;;26.80;43.90;;;;;;5076701;28;20285;-75
2022/05/30 13:24:59;;;;;;;4.00;2.00;;;26.70;44.30;;;;;;5094842;28;20019;-77
2022/05/30 13:27:29;;;;;;;4.05;2.28;;;26.70;43.70;;;;;;5094750;28;20028;-87
2022/05/30 13:30:00;;;;;;;6.18;2.22;;;27.00;44.30;;;;;;5094777;28;20327;-77